createdAt,value
2023-04-22T00:00:24.029Z,10.27
2023-04-22T00:01:25.658Z,9.30
2023-04-22T00:02:27.578Z,8.00
2023-04-22T00:03:30.121Z,10.50
2023-04-22T00:04:31.996Z,8.50
2023-04-22T00:05:34.206Z,12.27
2023-04-22T00:06:36.193Z,7.67
2023-04-22T00:07:37.706Z,9.83
2023-04-22T00:08:39.285Z,9.60
2023-04-22T00:09:41.841Z,7.33
2023-04-22T00:10:43.385Z,9.47
2023-04-22T00:11:44.956Z,7.67
2023-04-22T00:12:46.617Z,8.00
2023-04-22T00:13:48.136Z,9.27
2023-04-22T00:14:49.695Z,8.73
2023-04-22T00:15:51.667Z,7.07
2023-04-22T00:16:53.289Z,9.07
2023-04-22T00:17:54.983Z,9.50
2023-04-22T00:18:56.569Z,9.57
2023-04-22T00:19:58.144Z,10.97
2023-04-22T00:20:59.672Z,8.83
2023-04-22T00:22:01.342Z,9.67
2023-04-22T00:23:02.972Z,8.67
2023-04-22T00:24:04.705Z,10.73
2023-04-22T00:25:06.977Z,7.50
2023-04-22T00:26:08.531Z,8.67
2023-04-22T00:27:10.149Z,11.20
2023-04-22T00:28:11.686Z,9.33
2023-04-22T00:29:13.221Z,9.10
2023-04-22T00:30:15.149Z,8.93
2023-04-22T00:31:16.744Z,8.60
2023-04-22T00:32:18.756Z,7.10
2023-04-22T00:33:20.519Z,9.13
2023-04-22T00:34:22.094Z,9.20
2023-04-22T00:35:23.854Z,8.37
2023-04-22T00:36:26.130Z,7.60
2023-04-22T00:37:28.206Z,9.93
2023-04-22T00:38:30.551Z,6.90
2023-04-22T00:39:32.064Z,10.93
2023-04-22T00:40:33.591Z,10.50
2023-04-22T00:41:35.746Z,7.90
2023-04-22T00:42:37.607Z,7.53
2023-04-22T00:43:39.134Z,7.57
2023-04-22T00:44:41.092Z,10.93
2023-04-22T00:45:43.279Z,11.30
2023-04-22T00:46:45.807Z,9.70
2023-04-22T00:47:48.342Z,17.27
2023-04-22T00:48:50.762Z,7.87
2023-04-22T00:49:53.945Z,12.63
2023-04-22T00:50:55.502Z,10.90
2023-04-22T00:51:57.035Z,10.43
2023-04-22T00:52:58.585Z,10.40
2023-04-22T00:54:02.005Z,13.57
2023-04-22T00:55:04.586Z,12.90
2023-04-22T00:56:06.395Z,9.00
2023-04-22T00:57:07.992Z,11.13
2023-04-22T00:58:10.535Z,8.70
2023-04-22T00:59:12.638Z,13.13
2023-04-22T01:00:14.421Z,13.23
2023-04-22T01:01:16.534Z,12.37
2023-04-22T01:02:19.289Z,10.50
2023-04-22T01:03:22.346Z,13.13
2023-04-22T01:04:24.591Z,10.73
2023-04-22T01:05:28.392Z,11.87
2023-04-22T01:06:32.514Z,11.07
2023-04-22T01:07:34.389Z,13.03
2023-04-22T01:08:36.047Z,11.40
2023-04-22T01:09:40.067Z,8.87
2023-04-22T01:10:42.508Z,11.77
2023-04-22T01:11:44.852Z,9.17
2023-04-22T01:12:46.393Z,9.50
2023-04-22T01:13:47.980Z,9.03
2023-04-22T01:14:49.825Z,10.53
2023-04-22T01:15:53.237Z,9.87
2023-04-22T01:16:56.021Z,11.23
2023-04-22T01:17:58.297Z,9.93
2023-04-22T01:19:01.038Z,10.40
2023-04-22T01:20:04.434Z,12.00
2023-04-22T01:21:07.302Z,9.40
2023-04-22T01:22:13.073Z,10.37
2023-04-22T01:23:22.029Z,11.23
2023-04-22T01:24:23.753Z,12.63
2023-04-22T01:25:26.384Z,12.17
2023-04-22T01:26:28.184Z,11.87
2023-04-22T01:27:30.157Z,10.57
2023-04-22T01:28:32.275Z,11.27
2023-04-22T01:29:33.913Z,13.93
2023-04-22T01:30:35.821Z,10.30
2023-04-22T01:31:38.468Z,11.80
2023-04-22T01:32:40.951Z,9.47
2023-04-22T01:33:44.242Z,13.07
2023-04-22T01:34:45.796Z,11.53
2023-04-22T01:35:47.421Z,10.60
2023-04-22T01:36:50.430Z,12.37
2023-04-22T01:37:52.034Z,10.33
2023-04-22T01:38:53.845Z,10.87
2023-04-22T01:39:57.141Z,12.57
2023-04-22T01:40:58.826Z,13.80
2023-04-22T01:42:02.138Z,11.33
2023-04-22T01:43:03.829Z,12.80
2023-04-22T01:44:06.121Z,10.07
2023-04-22T01:45:08.224Z,14.00
2023-04-22T01:46:09.919Z,11.23
2023-04-22T01:47:11.595Z,11.83
2023-04-22T01:48:13.177Z,10.50
2023-04-22T01:49:14.779Z,15.13
2023-04-22T01:50:16.374Z,12.60
2023-04-22T01:51:20.849Z,13.27
2023-04-22T01:52:22.790Z,12.67
2023-04-22T01:53:24.814Z,11.33
2023-04-22T01:54:26.445Z,11.90
2023-04-22T01:55:28.027Z,10.53
2023-04-22T01:56:29.748Z,11.90
2023-04-22T01:57:31.301Z,11.60
2023-04-22T01:58:33.630Z,12.37
2023-04-22T01:59:35.167Z,11.80
2023-04-22T02:00:36.721Z,12.00
2023-04-22T02:01:38.295Z,12.47
2023-04-22T02:02:40.377Z,11.03
2023-04-22T02:03:42.093Z,9.47
2023-04-22T02:04:43.758Z,13.77
2023-04-22T02:05:45.415Z,9.97
2023-04-22T02:06:46.979Z,8.73
2023-04-22T02:07:52.620Z,10.63
2023-04-22T02:08:54.172Z,12.97
2023-04-22T02:09:55.775Z,12.17
2023-04-22T02:10:58.401Z,12.47
2023-04-22T02:12:00.002Z,15.20
2023-04-22T02:13:01.620Z,14.43
2023-04-22T02:14:03.191Z,10.87
2023-04-22T02:15:05.692Z,12.87
2023-04-22T02:16:08.292Z,12.27
2023-04-22T02:17:09.951Z,17.17
2023-04-22T02:18:11.784Z,11.60
2023-04-22T02:19:13.369Z,13.37
2023-04-22T02:20:15.349Z,13.20
2023-04-22T02:21:16.921Z,11.90
2023-04-22T02:22:18.634Z,8.83
2023-04-22T02:23:20.552Z,14.77
2023-04-22T02:24:22.142Z,13.00
2023-04-22T02:25:23.719Z,16.00
2023-04-22T02:26:26.027Z,11.10
2023-04-22T02:27:27.618Z,14.57
2023-04-22T02:28:29.296Z,13.23
2023-04-22T02:29:32.195Z,10.27
2023-04-22T02:30:33.837Z,11.00
2023-04-22T02:31:35.641Z,9.30
2023-04-22T02:32:38.882Z,11.57
2023-04-22T02:33:40.531Z,12.30
2023-04-22T02:34:42.047Z,11.97
2023-04-22T02:35:43.604Z,12.10
2023-04-22T02:36:45.247Z,11.23
2023-04-22T02:37:46.785Z,13.67
2023-04-22T02:38:49.368Z,10.13
2023-04-22T02:39:50.905Z,12.30
2023-04-22T02:40:52.405Z,11.63
2023-04-22T02:41:54.620Z,14.67
2023-04-22T02:42:56.695Z,9.90
2023-04-22T02:43:58.297Z,11.40
2023-04-22T02:44:59.961Z,11.00
2023-04-22T02:46:01.496Z,10.77
2023-04-22T02:47:03.900Z,10.13
2023-04-22T02:48:05.729Z,11.77
2023-04-22T02:49:07.281Z,9.70
2023-04-22T02:50:09.295Z,11.50
2023-04-22T02:51:11.636Z,12.53
2023-04-22T02:52:13.269Z,12.90
2023-04-22T02:53:14.792Z,10.53
2023-04-22T02:54:16.358Z,12.30
2023-04-22T02:55:17.956Z,10.40
2023-04-22T02:56:20.626Z,14.00
2023-04-22T02:57:22.300Z,11.57
2023-04-22T02:58:26.199Z,17.93
2023-04-22T02:59:27.755Z,12.47
2023-04-22T03:00:29.308Z,10.40
2023-04-22T03:01:31.216Z,13.17
2023-04-22T03:02:33.152Z,10.07
2023-04-22T03:03:35.062Z,11.23
2023-04-22T03:04:36.926Z,10.80
2023-04-22T03:05:38.552Z,11.50
2023-04-22T03:06:40.098Z,11.50
2023-04-22T03:07:41.763Z,16.07
2023-04-22T03:08:43.346Z,11.43
2023-04-22T03:09:44.985Z,11.87
2023-04-22T03:10:46.621Z,13.63
2023-04-22T03:11:48.225Z,12.80
2023-04-22T03:12:50.137Z,12.83
2023-04-22T03:13:51.713Z,13.77
2023-04-22T03:14:53.267Z,13.93
2023-04-22T03:15:54.784Z,12.87
2023-04-22T03:16:56.706Z,13.00
2023-04-22T03:17:58.354Z,13.93
2023-04-22T03:18:59.960Z,11.23
2023-04-22T03:20:01.662Z,14.40
2023-04-22T03:21:04.007Z,13.30
2023-04-22T03:22:05.560Z,13.93
2023-04-22T03:23:08.008Z,12.23
2023-04-22T03:24:09.582Z,15.17
2023-04-22T03:25:12.179Z,13.13
2023-04-22T03:26:13.845Z,11.83
2023-04-22T03:27:15.556Z,14.30
2023-04-22T03:28:17.077Z,14.80
2023-04-22T03:29:18.687Z,14.80
2023-04-22T03:30:20.421Z,13.17
2023-04-22T03:31:22.052Z,10.97
2023-04-22T03:32:23.854Z,14.13
2023-04-22T03:33:25.746Z,13.73
2023-04-22T03:34:27.345Z,12.17
2023-04-22T03:35:28.932Z,11.73
2023-04-22T03:36:31.126Z,12.97
2023-04-22T03:37:32.676Z,10.87
2023-04-22T03:38:34.185Z,12.47
2023-04-22T03:39:35.718Z,12.60
2023-04-22T03:40:37.295Z,12.07
2023-04-22T03:41:38.822Z,13.33
2023-04-22T03:42:40.388Z,11.77
2023-04-22T03:43:41.905Z,12.73
2023-04-22T03:44:43.526Z,13.97
2023-04-22T03:45:45.384Z,13.47
2023-04-22T03:46:46.988Z,12.63
2023-04-22T03:47:48.981Z,13.13
2023-04-22T03:48:51.188Z,13.27
2023-04-22T03:49:52.716Z,12.40
2023-04-22T03:50:54.298Z,13.07
2023-04-22T03:51:56.023Z,19.47
2023-04-22T03:52:57.594Z,16.23
2023-04-22T03:53:59.154Z,12.20
2023-04-22T03:55:00.690Z,13.73
2023-04-22T03:56:02.256Z,12.60
2023-04-22T03:57:03.893Z,11.90
2023-04-22T03:58:05.440Z,13.03
2023-04-22T03:59:07.081Z,13.73
2023-04-22T04:00:09.038Z,12.47
2023-04-22T04:01:11.456Z,13.57
2023-04-22T04:02:13.057Z,10.73
2023-04-22T04:03:14.900Z,10.60
2023-04-22T04:04:16.679Z,14.83
2023-04-22T04:05:19.049Z,13.27
2023-04-22T04:06:20.741Z,10.33
2023-04-22T04:07:22.269Z,13.60
2023-04-22T04:08:23.840Z,12.60
2023-04-22T04:09:25.355Z,14.37
2023-04-22T04:10:27.376Z,14.83
2023-04-22T04:11:29.122Z,15.47
2023-04-22T04:12:30.736Z,12.53
2023-04-22T04:13:32.541Z,17.03
2023-04-22T04:14:34.212Z,13.17
2023-04-22T04:15:37.296Z,13.80
2023-04-22T04:16:38.931Z,12.13
2023-04-22T04:17:40.478Z,15.90
2023-04-22T04:18:42.198Z,13.17
2023-04-22T04:19:43.754Z,13.17
2023-04-22T04:20:45.360Z,11.63
2023-04-22T04:21:47.087Z,14.93
2023-04-22T04:22:48.667Z,12.97
2023-04-22T04:23:50.368Z,13.27
2023-04-22T04:24:52.490Z,15.13
2023-04-22T04:25:55.623Z,11.90
2023-04-22T04:26:58.111Z,16.00
2023-04-22T04:27:59.623Z,13.20
2023-04-22T04:29:01.913Z,12.43
2023-04-22T04:30:03.975Z,11.80
2023-04-22T04:31:05.690Z,13.67
2023-04-22T04:32:08.568Z,11.47
2023-04-22T04:33:12.230Z,12.40
2023-04-22T04:34:14.073Z,13.00
2023-04-22T04:35:18.451Z,13.33
2023-04-22T04:36:20.835Z,12.53
2023-04-22T04:37:23.472Z,11.47
2023-04-22T04:38:26.265Z,15.53
2023-04-22T04:39:29.461Z,14.90
2023-04-22T04:40:32.144Z,15.57
2023-04-22T04:41:33.902Z,14.57
2023-04-22T04:42:36.944Z,18.40
2023-04-22T04:43:38.775Z,17.93
2023-04-22T04:44:40.354Z,18.30
2023-04-22T04:45:48.408Z,18.50
2023-04-22T04:46:50.845Z,18.67
2023-04-22T04:47:52.982Z,16.40
2023-04-22T04:48:54.680Z,16.10
2023-04-22T04:49:58.573Z,15.00
2023-04-22T04:51:00.142Z,15.80
2023-04-22T04:52:01.918Z,16.10
2023-04-22T04:53:03.668Z,15.60
2023-04-22T04:54:05.254Z,19.47
2023-04-22T04:55:07.017Z,15.03
2023-04-22T04:56:08.585Z,15.97
2023-04-22T04:57:10.438Z,14.83
2023-04-22T04:58:11.974Z,15.40
2023-04-22T04:59:13.506Z,17.63
2023-04-22T05:00:15.409Z,16.47
2023-04-22T05:01:16.968Z,19.07
2023-04-22T05:02:18.747Z,17.63
2023-04-22T05:03:20.674Z,14.30
2023-04-22T05:04:22.473Z,16.53
2023-04-22T05:05:24.122Z,18.23
2023-04-22T05:06:26.595Z,16.97
2023-04-22T05:07:28.150Z,14.50
2023-04-22T05:08:29.686Z,12.50
2023-04-22T05:09:37.128Z,13.37
2023-04-22T05:10:38.914Z,15.17
2023-04-22T05:11:40.529Z,15.37
2023-04-22T05:12:42.093Z,18.20
2023-04-22T05:13:44.027Z,15.23
2023-04-22T05:14:46.590Z,17.47
2023-04-22T05:15:48.470Z,18.33
2023-04-22T05:16:50.245Z,15.23
2023-04-22T05:17:51.903Z,15.70
2023-04-22T05:18:53.426Z,14.60
2023-04-22T05:19:54.939Z,21.27
2023-04-22T05:20:58.912Z,14.80
2023-04-22T05:22:00.474Z,12.67
2023-04-22T05:23:02.119Z,15.13
2023-04-22T05:24:03.890Z,17.57
2023-04-22T05:25:05.821Z,18.23
2023-04-22T05:26:07.346Z,13.20
2023-04-22T05:27:09.348Z,15.77
2023-04-22T05:28:10.948Z,13.73
2023-04-22T05:29:12.457Z,16.13
2023-04-22T05:30:14.122Z,16.03
2023-04-22T05:31:15.805Z,18.53
2023-04-22T05:32:17.622Z,18.03
2023-04-22T05:33:19.294Z,14.63
2023-04-22T05:34:21.048Z,14.73
2023-04-22T05:35:22.689Z,16.50
2023-04-22T05:36:24.266Z,16.20
2023-04-22T05:37:25.858Z,17.30
2023-04-22T05:38:28.170Z,17.30
2023-04-22T05:39:30.058Z,16.40
2023-04-22T05:40:31.635Z,14.40
2023-04-22T05:41:33.223Z,16.00
2023-04-22T05:42:35.039Z,16.70
2023-04-22T05:43:36.678Z,15.93
2023-04-22T05:44:38.220Z,17.67
2023-04-22T05:45:39.855Z,16.27
2023-04-22T05:46:41.600Z,16.43
2023-04-22T05:47:43.495Z,16.43
2023-04-22T05:48:45.135Z,20.57
2023-04-22T05:49:46.661Z,16.67
2023-04-22T05:50:48.267Z,17.07
2023-04-22T05:51:50.638Z,15.27
2023-04-22T05:52:52.192Z,16.30
2023-04-22T05:53:53.779Z,17.53
2023-04-22T05:54:55.355Z,16.10
2023-04-22T05:55:56.964Z,16.57
2023-04-22T05:56:58.745Z,16.87
2023-04-22T05:58:00.524Z,17.83
2023-04-22T05:59:02.157Z,17.60
2023-04-22T06:00:05.190Z,32.23
2023-04-22T06:01:06.812Z,15.83
2023-04-22T06:02:08.646Z,16.80
2023-04-22T06:03:10.491Z,17.77
2023-04-22T06:04:12.740Z,15.83
2023-04-22T06:05:14.526Z,18.30
2023-04-22T06:06:16.422Z,15.90
2023-04-22T06:07:17.939Z,17.47
2023-04-22T06:08:19.651Z,15.90
2023-04-22T06:09:22.341Z,13.70
2023-04-22T06:10:24.163Z,13.80
2023-04-22T06:11:25.933Z,15.20
2023-04-22T06:12:27.580Z,14.53
2023-04-22T06:13:29.167Z,13.57
2023-04-22T06:14:30.910Z,15.23
2023-04-22T06:15:34.400Z,18.40
2023-04-22T06:16:36.000Z,16.87
2023-04-22T06:17:37.607Z,12.53
2023-04-22T06:18:39.195Z,15.73
2023-04-22T06:19:42.085Z,20.33
2023-04-22T06:20:43.807Z,14.40
2023-04-22T06:21:45.376Z,18.17
2023-04-22T06:22:46.913Z,12.53
2023-04-22T06:23:49.208Z,15.83
2023-04-22T06:24:50.791Z,16.63
2023-04-22T06:25:52.394Z,15.53
2023-04-22T06:26:54.038Z,19.80
2023-04-22T06:27:55.721Z,16.13
2023-04-22T06:28:57.593Z,14.37
2023-04-22T06:29:59.210Z,18.70
2023-04-22T06:31:02.321Z,18.23
2023-04-22T06:32:03.915Z,19.60
2023-04-22T06:33:05.499Z,17.80
2023-04-22T06:34:07.082Z,17.63
2023-04-22T06:35:09.120Z,19.33
2023-04-22T06:36:10.864Z,17.93
2023-04-22T06:37:12.479Z,17.10
2023-04-22T06:38:13.990Z,16.57
2023-04-22T06:39:16.028Z,23.17
2023-04-22T06:40:17.594Z,16.20
2023-04-22T06:41:19.161Z,12.77
2023-04-22T06:42:20.838Z,17.53
2023-04-22T06:43:22.353Z,18.87
2023-04-22T06:44:25.461Z,18.67
2023-04-22T06:45:27.014Z,16.67
2023-04-22T06:46:28.651Z,17.60
2023-04-22T06:47:30.475Z,11.93
2023-04-22T06:48:32.109Z,13.37
2023-04-22T06:49:33.776Z,17.50
2023-04-22T06:50:36.425Z,11.60
2023-04-22T06:51:38.084Z,13.30
2023-04-22T06:52:42.095Z,14.43
2023-04-22T06:53:43.954Z,17.00
2023-04-22T06:54:45.737Z,15.00
2023-04-22T06:55:47.336Z,12.17
2023-04-22T06:56:48.930Z,14.33
2023-04-22T06:57:51.453Z,12.00
2023-04-22T06:58:52.989Z,13.37
2023-04-22T06:59:54.537Z,11.10
2023-04-22T07:00:56.101Z,11.53
2023-04-22T07:01:57.707Z,11.87
2023-04-22T07:02:59.410Z,12.67
2023-04-22T07:04:01.079Z,12.37
2023-04-22T07:05:02.734Z,18.27
2023-04-22T07:06:05.440Z,18.30
2023-04-22T07:07:06.983Z,18.40
2023-04-22T07:08:08.557Z,13.87
2023-04-22T07:09:10.300Z,11.30
2023-04-22T07:10:12.726Z,11.90
2023-04-22T07:11:14.506Z,17.00
2023-04-22T07:12:16.391Z,13.90
2023-04-22T07:13:17.993Z,15.97
2023-04-22T07:14:19.542Z,14.20
2023-04-22T07:15:21.206Z,11.83
2023-04-22T07:16:22.949Z,14.37
2023-04-22T07:17:24.583Z,12.67
2023-04-22T07:18:26.205Z,14.83
2023-04-22T07:19:27.761Z,14.93
2023-04-22T07:20:29.314Z,14.43
2023-04-22T07:21:31.688Z,13.80
2023-04-22T07:22:33.302Z,11.87
2023-04-22T07:23:34.937Z,12.57
2023-04-22T07:24:37.523Z,11.53
2023-04-22T07:25:39.157Z,11.60
2023-04-22T07:26:42.737Z,29.97
2023-04-22T07:27:44.405Z,11.10
2023-04-22T07:28:46.159Z,9.67
2023-04-22T07:29:47.749Z,10.50
2023-04-22T07:30:49.328Z,12.47
2023-04-22T07:31:50.911Z,9.93
2023-04-22T07:32:52.570Z,14.40
2023-04-22T07:33:54.230Z,11.83
2023-04-22T07:34:56.015Z,11.17
2023-04-22T07:35:57.640Z,14.00
2023-04-22T07:36:59.414Z,13.07
2023-04-22T07:38:01.064Z,10.23
2023-04-22T07:39:02.851Z,11.50
2023-04-22T07:40:05.939Z,10.93
2023-04-22T07:41:07.485Z,10.70
2023-04-22T07:42:09.053Z,10.60
2023-04-22T07:43:10.567Z,12.90
2023-04-22T07:44:16.460Z,9.23
2023-04-22T07:45:18.243Z,16.85
2023-04-22T07:46:20.147Z,7.70
2023-04-22T07:47:21.874Z,10.70
2023-04-22T07:48:23.474Z,17.00
2023-04-22T07:49:25.014Z,16.67
2023-04-22T07:50:26.594Z,11.27
2023-04-22T07:51:28.677Z,8.60
2023-04-22T07:52:30.462Z,9.43
2023-04-22T07:53:31.967Z,9.90
2023-04-22T07:54:33.496Z,9.32
2023-04-22T07:55:35.042Z,12.65
2023-04-22T07:56:36.642Z,10.00
2023-04-22T07:57:39.914Z,9.02
2023-04-22T07:58:41.486Z,11.10
2023-04-22T07:59:43.148Z,12.65
2023-04-22T08:00:44.783Z,10.88
2023-04-22T08:01:46.679Z,10.38
2023-04-22T08:02:48.381Z,8.30
2023-04-22T08:03:50.240Z,7.90
2023-04-22T08:04:52.148Z,10.90
2023-04-22T08:05:53.744Z,12.60
2023-04-22T08:06:56.153Z,12.48
2023-04-22T08:07:57.719Z,9.40
2023-04-22T08:08:59.316Z,9.43
2023-04-22T08:10:01.295Z,10.13
2023-04-22T08:11:02.870Z,8.98
2023-04-22T08:12:04.444Z,10.32
2023-04-22T08:13:06.213Z,7.80
2023-04-22T08:14:07.760Z,7.65
2023-04-22T08:15:09.918Z,8.80
2023-04-22T08:16:11.539Z,11.38
2023-04-22T08:17:13.151Z,12.25
2023-04-22T08:18:14.685Z,8.63
2023-04-22T08:19:16.235Z,7.32
2023-04-22T08:20:18.392Z,6.82
2023-04-22T08:21:19.918Z,8.35
2023-04-22T08:22:21.566Z,8.77
2023-04-22T08:23:23.367Z,7.13
2023-04-22T08:24:25.005Z,9.63
2023-04-22T08:25:27.701Z,10.35
2023-04-22T08:26:29.419Z,8.98
2023-04-22T08:27:31.075Z,8.15
2023-04-22T08:28:32.766Z,9.38
2023-04-22T08:29:34.541Z,9.70
2023-04-22T08:30:36.181Z,8.20
2023-04-22T08:31:37.825Z,12.13
2023-04-22T08:32:39.513Z,8.43
2023-04-22T08:33:42.066Z,7.07
2023-04-22T08:34:44.063Z,8.07
2023-04-22T08:35:46.027Z,10.23
2023-04-22T08:36:47.645Z,12.45
2023-04-22T08:37:49.192Z,9.17
2023-04-22T08:38:50.766Z,15.00
2023-04-22T08:39:53.081Z,13.68
2023-04-22T08:40:57.141Z,9.95
2023-04-22T08:41:58.803Z,9.02
2023-04-22T08:43:00.653Z,8.50
2023-04-22T08:44:03.201Z,9.13
2023-04-22T08:45:05.877Z,8.07
2023-04-22T08:46:07.506Z,7.45
2023-04-22T08:47:10.041Z,8.13
2023-04-22T08:48:12.596Z,7.07
2023-04-22T08:49:15.634Z,11.27
2023-04-22T08:50:20.048Z,8.90
2023-04-22T08:51:22.606Z,7.10
2023-04-22T08:52:24.243Z,7.63
2023-04-22T08:53:25.798Z,5.43
2023-04-22T08:54:27.358Z,9.07
2023-04-22T08:55:31.142Z,7.85
2023-04-22T08:56:32.863Z,11.48
2023-04-22T08:57:36.567Z,8.18
2023-04-22T08:58:40.508Z,7.10
2023-04-22T08:59:42.523Z,8.15
2023-04-22T09:00:45.369Z,7.82
2023-04-22T09:01:52.115Z,8.73
2023-04-22T09:02:54.504Z,9.00
2023-04-22T09:03:59.841Z,6.60
2023-04-22T09:05:02.402Z,6.82
2023-04-22T09:06:04.930Z,6.50
2023-04-22T09:07:07.004Z,8.43
2023-04-22T09:08:10.104Z,13.68
2023-04-22T09:09:11.680Z,6.00
2023-04-22T09:10:13.310Z,10.90
2023-04-22T09:11:15.008Z,6.32
2023-04-22T09:12:19.159Z,5.30
2023-04-22T09:13:21.590Z,5.97
2023-04-22T09:14:24.009Z,6.57
2023-04-22T09:15:25.772Z,8.88
2023-04-22T09:16:31.420Z,6.50
2023-04-22T09:17:34.826Z,4.85
2023-04-22T09:18:41.612Z,5.45
2023-04-22T09:19:43.339Z,9.60
2023-04-22T09:20:47.275Z,7.38
2023-04-22T09:21:50.832Z,7.50
2023-04-22T09:22:54.961Z,8.00
2023-04-22T09:23:57.083Z,7.78
2023-04-22T09:24:58.736Z,9.10
2023-04-22T09:26:01.394Z,6.75
2023-04-22T09:27:03.635Z,13.45
2023-04-22T09:28:05.216Z,8.30
2023-04-22T09:29:09.418Z,8.05
2023-04-22T09:30:11.148Z,7.07
2023-04-22T09:31:14.956Z,6.72
2023-04-22T09:32:17.559Z,9.65
2023-04-22T09:33:19.342Z,9.25
2023-04-22T09:34:22.010Z,11.57
2023-04-22T09:35:27.037Z,10.30
2023-04-22T09:36:30.307Z,7.60
2023-04-22T09:37:42.784Z,6.47
2023-04-22T09:38:55.300Z,7.57
2023-04-22T09:39:56.875Z,12.23
2023-04-22T09:40:58.405Z,5.13
2023-04-22T09:41:59.957Z,7.68
2023-04-22T09:43:08.866Z,8.00
2023-04-22T09:44:14.968Z,9.57
2023-04-22T09:45:45.534Z,13.30
2023-04-22T09:46:49.852Z,6.80
2023-04-22T09:47:51.491Z,11.00
2023-04-22T09:48:55.882Z,7.95
2023-04-22T09:49:57.418Z,7.50
2023-04-22T09:50:58.998Z,6.78
2023-04-22T09:52:00.571Z,6.63
2023-04-22T09:53:05.250Z,5.10
2023-04-22T09:54:11.588Z,11.23
2023-04-22T09:55:13.308Z,5.63
2023-04-22T09:56:14.918Z,7.72
2023-04-22T09:57:17.241Z,6.43
2023-04-22T09:58:21.063Z,6.55
2023-04-22T09:59:28.300Z,5.22
2023-04-22T10:00:31.173Z,6.57
2023-04-22T10:01:41.261Z,6.47
2023-04-22T10:02:43.048Z,6.57
2023-04-22T10:03:44.968Z,6.00
2023-04-22T10:04:47.640Z,7.28
2023-04-22T10:05:49.451Z,5.88
2023-04-22T10:06:52.242Z,5.85
2023-04-22T10:07:53.888Z,5.97
2023-04-22T10:08:55.650Z,3.92
2023-04-22T10:09:57.748Z,2.50
2023-04-22T10:10:59.310Z,5.18
2023-04-22T10:12:01.529Z,10.38
2023-04-22T10:13:06.534Z,6.95
2023-04-22T10:14:10.644Z,6.05
2023-04-22T10:15:12.178Z,5.07
2023-04-22T10:16:14.714Z,6.35
2023-04-22T10:17:18.253Z,6.15
2023-04-22T10:18:24.355Z,4.70
2023-04-22T10:19:27.502Z,12.02
2023-04-22T10:20:30.351Z,5.03
2023-04-22T10:21:33.523Z,6.50
2023-04-22T10:22:35.781Z,5.47
2023-04-22T10:23:37.351Z,6.53
2023-04-22T10:24:39.693Z,8.77
2023-04-22T10:25:41.586Z,5.63
2023-04-22T10:26:48.681Z,4.10
2023-04-22T10:28:00.418Z,6.97
2023-04-22T10:29:06.565Z,6.93
2023-04-22T10:30:09.947Z,4.38
2023-04-22T10:31:24.022Z,7.07
2023-04-22T10:32:26.614Z,5.22
2023-04-22T10:33:29.129Z,7.28
2023-04-22T10:34:34.956Z,6.45
2023-04-22T10:35:36.543Z,2.35
2023-04-22T10:36:55.175Z,7.07
2023-04-22T10:37:57.456Z,5.03
2023-04-22T10:38:58.980Z,8.23
2023-04-22T10:40:13.380Z,5.03
2023-04-22T10:41:15.531Z,6.07
2023-04-22T10:42:17.120Z,6.82
2023-04-22T10:43:19.990Z,6.68
2023-04-22T10:44:23.086Z,4.13
2023-04-22T10:45:26.725Z,4.03
2023-04-22T10:46:42.701Z,4.22
2023-04-22T10:47:45.338Z,8.48
2023-04-22T10:48:52.870Z,3.85
2023-04-22T10:50:28.828Z,6.53
2023-04-22T10:51:40.458Z,5.97
2023-04-22T10:52:43.556Z,5.78
2023-04-22T10:53:46.481Z,5.45
2023-04-22T10:54:58.566Z,4.05
2023-04-22T10:56:01.024Z,7.22
2023-04-22T10:57:03.731Z,3.10
2023-04-22T10:58:20.260Z,3.25
2023-04-22T10:59:21.819Z,5.82
2023-04-22T11:00:35.297Z,6.90
2023-04-22T11:01:41.892Z,4.32
2023-04-22T11:02:51.874Z,5.80
2023-04-22T11:03:53.893Z,3.33
2023-04-22T11:05:31.697Z,5.32
2023-04-22T11:06:33.333Z,6.18
2023-04-22T11:07:36.374Z,4.75
2023-04-22T11:08:38.355Z,2.67
2023-04-22T11:09:41.280Z,5.88
2023-04-22T11:10:48.357Z,4.60
2023-04-22T11:11:51.131Z,3.80
2023-04-22T11:12:53.010Z,4.15
2023-04-22T11:13:55.614Z,4.20
2023-04-22T11:14:57.336Z,3.80
2023-04-22T11:15:59.462Z,4.13
2023-04-22T11:17:01.412Z,3.55
2023-04-22T11:18:04.159Z,3.75
2023-04-22T11:19:05.980Z,4.63
2023-04-22T11:20:08.691Z,4.88
2023-04-22T11:21:10.831Z,3.28
2023-04-22T11:22:13.303Z,5.75
2023-04-22T11:23:27.268Z,4.30
2023-04-22T11:24:28.858Z,3.80
2023-04-22T11:25:30.848Z,5.30
2023-04-22T11:26:35.033Z,4.38
2023-04-22T11:27:37.966Z,5.00
2023-04-22T11:28:48.604Z,7.40
2023-04-22T11:30:02.723Z,4.53
2023-04-22T11:31:10.421Z,4.30
2023-04-22T11:32:12.202Z,3.17
2023-04-22T11:33:16.007Z,5.85
2023-04-22T11:34:18.539Z,7.35
2023-04-22T11:35:27.029Z,3.42
2023-04-22T11:36:28.830Z,3.28
2023-04-22T11:37:30.675Z,3.40
2023-04-22T11:38:33.108Z,5.72
2023-04-22T11:39:44.306Z,5.07
2023-04-22T11:40:54.890Z,4.72
2023-04-22T11:41:56.709Z,3.67
2023-04-22T11:42:59.597Z,5.30
2023-04-22T11:44:01.712Z,4.22
2023-04-22T11:45:03.970Z,5.82
2023-04-22T11:46:05.639Z,4.40
2023-04-22T11:47:07.257Z,5.47
2023-04-22T11:48:11.127Z,4.93
2023-04-22T11:49:16.877Z,4.78
2023-04-22T11:50:22.483Z,5.82
2023-04-22T11:51:24.150Z,7.30
2023-04-22T11:52:39.814Z,4.93
2023-04-22T11:53:50.393Z,5.82
2023-04-22T11:54:52.211Z,5.85
2023-04-22T11:55:53.815Z,4.80
2023-04-22T11:56:55.479Z,5.50
2023-04-22T11:58:08.853Z,8.52
2023-04-22T11:59:10.589Z,4.30
2023-04-22T12:00:15.018Z,10.15
2023-04-22T12:01:17.977Z,14.15
2023-04-22T12:02:19.634Z,5.75
2023-04-22T12:03:29.151Z,7.03
2023-04-22T12:04:39.089Z,8.65
2023-04-22T12:05:45.825Z,7.80
2023-04-22T12:06:47.518Z,4.13
2023-04-22T12:07:51.083Z,5.82
2023-04-22T12:08:54.236Z,6.70
2023-04-22T12:09:56.729Z,3.05
2023-04-22T12:11:01.285Z,5.60
2023-04-22T12:12:06.214Z,5.68
2023-04-22T12:13:08.401Z,4.82
2023-04-22T12:14:11.907Z,6.45
2023-04-22T12:15:16.222Z,6.78
2023-04-22T12:16:20.356Z,4.78
2023-04-22T12:17:25.677Z,4.03
2023-04-22T12:18:30.980Z,6.80
2023-04-22T12:19:32.806Z,6.50
2023-04-22T12:20:38.184Z,6.05
2023-04-22T12:21:41.891Z,7.63
2023-04-22T12:22:43.447Z,8.20
2023-04-22T12:23:45.780Z,5.30
2023-04-22T12:24:47.406Z,10.25
2023-04-22T12:25:48.958Z,10.95
2023-04-22T12:26:50.507Z,4.72
2023-04-22T12:27:52.037Z,4.55
2023-04-22T12:28:54.564Z,5.93
2023-04-22T12:29:56.991Z,4.10
2023-04-22T12:30:58.584Z,8.75
2023-04-22T12:32:01.113Z,5.63
2023-04-22T12:33:02.854Z,5.97
2023-04-22T12:34:04.512Z,4.70
2023-04-22T12:35:08.480Z,11.60
2023-04-22T12:36:10.691Z,5.35
2023-04-22T12:37:12.585Z,11.13
2023-04-22T12:38:14.249Z,5.95
2023-04-22T12:39:15.958Z,4.28
2023-04-22T12:40:17.660Z,4.55
2023-04-22T12:41:19.504Z,6.82
2023-04-22T12:42:21.143Z,5.30
2023-04-22T12:43:22.799Z,6.00
2023-04-22T12:44:25.219Z,6.20
2023-04-22T12:45:26.936Z,9.25
2023-04-22T12:46:28.582Z,9.20
2023-04-22T12:47:30.341Z,4.53
2023-04-22T12:48:32.504Z,4.78
2023-04-22T12:49:34.140Z,5.45
2023-04-22T12:50:35.815Z,5.38
2023-04-22T12:51:37.421Z,5.32
2023-04-22T12:52:39.090Z,5.57
2023-04-22T12:53:40.759Z,6.25
2023-04-22T12:54:42.286Z,5.50
2023-04-22T12:55:46.014Z,5.97
2023-04-22T12:56:48.531Z,5.32
2023-04-22T12:57:52.973Z,4.32
2023-04-22T12:58:54.717Z,4.75
2023-04-22T12:59:57.774Z,5.75
2023-04-22T13:00:59.423Z,7.13
2023-04-22T13:02:01.059Z,5.15
2023-04-22T13:03:02.833Z,4.43
2023-04-22T13:04:05.196Z,7.25
2023-04-22T13:05:07.236Z,5.43
2023-04-22T13:06:08.934Z,6.45
2023-04-22T13:07:11.081Z,3.75
2023-04-22T13:08:12.887Z,5.53
2023-04-22T13:09:14.602Z,5.63
2023-04-22T13:10:17.317Z,4.65
2023-04-22T13:11:18.971Z,4.72
2023-04-22T13:12:20.613Z,3.15
2023-04-22T13:13:22.155Z,6.78
2023-04-22T13:14:23.820Z,5.72
2023-04-22T13:15:26.647Z,4.43
2023-04-22T13:16:28.377Z,7.28
2023-04-22T13:17:31.024Z,3.83
2023-04-22T13:18:33.476Z,5.90
2023-04-22T13:19:35.532Z,4.82
2023-04-22T13:20:37.303Z,6.45
2023-04-22T13:21:39.028Z,4.22
2023-04-22T13:22:41.497Z,5.53
2023-04-22T13:23:43.539Z,9.63
2023-04-22T13:24:45.553Z,5.30
2023-04-22T13:25:48.055Z,7.10
2023-04-22T13:26:49.781Z,3.03
2023-04-22T13:27:51.469Z,4.75
2023-04-22T13:28:53.466Z,4.68
2023-04-22T13:29:54.995Z,6.30
2023-04-22T13:30:56.818Z,3.95
2023-04-22T13:31:58.700Z,4.05
2023-04-22T13:33:00.409Z,4.97
2023-04-22T13:34:02.074Z,4.88
2023-04-22T13:35:04.099Z,5.10
2023-04-22T13:36:05.798Z,6.47
2023-04-22T13:37:08.334Z,6.93
2023-04-22T13:38:09.969Z,6.50